Terminal Aerodrome Forecast
Issued by NWS Albany, NY

Home | Current Version | Previous Version | Text Only | Print | Product List | Glossary On
Versions: 1 2 3 4 5 6 7 8 9 10 11 12 13 14 15 16 17 18 19 20 21 22 23 24 25 26 27
000
FTUS41 KALY 302300
TAFALB
TAF
KALB 302320Z 3100/3124 20005KT P6SM SCT050 BKN100
     FM310200 19003KT P6SM VCSH BKN050 BKN080
     FM311200 19005KT P6SM VCSH BKN040 PROB30 3112/3118 3SM TSRA
      OVC030CB
     FM312100 22007KT P6SM SCT045 SCT100=

USA.gov is the U.S. government's official web portal to all federal, state and local government web resources and services.